createdAt,value
2018-05-28T00:02:11.603Z,101360.70
2018-05-28T00:04:37.395Z,101361.28
2018-05-28T00:07:03.186Z,101357.67
2018-05-28T00:09:28.998Z,101362.78
2018-05-28T00:11:54.793Z,101361.52
2018-05-28T00:14:20.578Z,101361.92
2018-05-28T00:16:46.409Z,101360.62
2018-05-28T00:19:12.203Z,101358.43
2018-05-28T00:21:37.996Z,101356.04
2018-05-28T00:24:03.793Z,101361.66
2018-05-28T00:26:29.575Z,101363.65
2018-05-28T00:28:55.370Z,101364.59
2018-05-28T00:31:21.176Z,101358.14
2018-05-28T00:33:46.960Z,101351.80
2018-05-28T00:36:12.745Z,101348.16
2018-05-28T00:38:38.543Z,101360.56
2018-05-28T00:41:04.350Z,101365.59
2018-05-28T00:43:30.135Z,101361.19
2018-05-28T00:45:55.916Z,101363.03
2018-05-28T00:48:21.756Z,101364.00
2018-05-28T00:50:47.532Z,101370.97
2018-05-28T00:53:13.321Z,101370.23
2018-05-28T00:55:46.275Z,101363.81
2018-05-28T00:58:12.056Z,101364.66
2018-05-28T01:00:37.836Z,101362.62
2018-05-28T01:03:03.635Z,101355.37
2018-05-28T01:05:29.428Z,101354.95
2018-05-28T01:07:55.221Z,101356.24
2018-05-28T01:10:21.008Z,101356.97
2018-05-28T01:12:46.808Z,101366.07
2018-05-28T01:15:12.606Z,101363.70
2018-05-28T01:17:38.410Z,101369.21
2018-05-28T01:20:04.191Z,101371.38
2018-05-28T01:22:29.998Z,101373.08
2018-05-28T01:24:55.806Z,101367.56
2018-05-28T01:27:21.585Z,101372.84
2018-05-28T01:29:47.396Z,101371.17
2018-05-28T01:32:13.172Z,101363.81
2018-05-28T01:34:38.944Z,101365.52
2018-05-28T01:37:04.763Z,101361.77
2018-05-28T01:39:30.549Z,101363.10
2018-05-28T01:41:56.325Z,101366.36
2018-05-28T01:44:22.380Z,101364.38
2018-05-28T01:46:48.181Z,101370.77
2018-05-28T01:49:13.961Z,101358.07
2018-05-28T01:51:39.776Z,101357.96
2018-05-28T01:54:05.562Z,101362.00
2018-05-28T01:56:31.361Z,101357.36
2018-05-28T01:58:57.149Z,101367.42
2018-05-28T02:01:22.966Z,101380.58
2018-05-28T02:03:48.772Z,101390.76
2018-05-28T02:06:14.552Z,101397.05
2018-05-28T02:08:40.345Z,101403.16
2018-05-28T02:11:06.143Z,101415.11
2018-05-28T02:13:31.962Z,101415.02
2018-05-28T02:15:57.752Z,101407.56
2018-05-28T02:18:23.549Z,101407.69
2018-05-28T02:20:49.332Z,101406.86
2018-05-28T02:23:15.150Z,101407.78
2018-05-28T02:25:40.921Z,101401.95
2018-05-28T02:28:06.710Z,101401.08
2018-05-28T02:30:32.601Z,101403.02
2018-05-28T02:32:58.394Z,101388.72
2018-05-28T02:35:24.215Z,101393.23
2018-05-28T02:37:50.005Z,101392.37
2018-05-28T02:40:15.813Z,101401.34
2018-05-28T02:42:41.598Z,101401.83
2018-05-28T02:45:07.382Z,101400.28
2018-05-28T02:47:33.196Z,101394.15
2018-05-28T02:49:58.977Z,101399.47
2018-05-28T02:52:24.764Z,101398.48
2018-05-28T02:54:50.565Z,101401.69
2018-05-28T02:57:16.353Z,101407.69
2018-05-28T02:59:42.187Z,101412.69
2018-05-28T03:02:07.994Z,101405.34
2018-05-28T03:04:33.792Z,101399.66
2018-05-28T03:06:59.615Z,101399.36
2018-05-28T03:09:25.393Z,101401.03
2018-05-28T03:11:51.178Z,101397.57
2018-05-28T03:14:17.271Z,101403.05
2018-05-28T03:16:43.054Z,101409.75
2018-05-28T03:19:08.840Z,101407.89
2018-05-28T03:21:34.652Z,101410.95
2018-05-28T03:24:00.434Z,101411.91
2018-05-28T03:26:26.234Z,101409.87
2018-05-28T03:28:52.208Z,101412.34
2018-05-28T03:31:17.995Z,101409.47
2018-05-28T03:33:43.790Z,101406.19
2018-05-28T03:36:09.599Z,101409.31
2018-05-28T03:38:35.369Z,101406.19
2018-05-28T03:41:01.149Z,101416.72
2018-05-28T03:43:26.949Z,101414.13
2018-05-28T03:45:52.741Z,101413.75
2018-05-28T03:48:18.532Z,101407.75
2018-05-28T03:50:44.304Z,101405.16
2018-05-28T03:53:10.108Z,101409.92
2018-05-28T03:55:35.898Z,101409.55
2018-05-28T03:58:01.701Z,101407.98
2018-05-28T04:00:39.994Z,101411.19
2018-05-28T04:03:18.792Z,101402.94
2018-05-28T04:05:57.116Z,101409.89
2018-05-28T04:08:23.659Z,101414.43
2018-05-28T04:10:49.671Z,101422.25
2018-05-28T04:13:16.242Z,101418.60
2018-05-28T04:15:42.854Z,101415.56
2018-05-28T04:18:08.694Z,101415.17
2018-05-28T04:20:34.489Z,101419.44
2018-05-28T04:23:00.545Z,101417.92
2018-05-28T04:25:26.328Z,101425.16
2018-05-28T04:27:52.107Z,101423.60
2018-05-28T04:30:18.285Z,101419.63
2018-05-28T04:32:44.067Z,101419.78
2018-05-28T04:35:09.921Z,101423.27
2018-05-28T04:37:35.690Z,101417.33
2018-05-28T04:40:01.482Z,101417.80
2018-05-28T04:42:27.289Z,101421.81
2018-05-28T04:44:53.075Z,101409.98
2018-05-28T04:47:18.854Z,101420.03
2018-05-28T04:49:44.628Z,101421.33
2018-05-28T04:52:10.431Z,101422.94
2018-05-28T04:54:36.210Z,101423.53
2018-05-28T04:57:02.007Z,101421.38
2018-05-28T04:59:27.808Z,101425.48
2018-05-28T05:01:53.597Z,101427.62
2018-05-28T05:04:19.389Z,101431.05
2018-05-28T05:06:45.172Z,101440.91
2018-05-28T05:09:10.941Z,101450.89
2018-05-28T05:11:36.726Z,101449.84
2018-05-28T05:14:02.527Z,101448.83
2018-05-28T05:16:28.296Z,101450.06
2018-05-28T05:18:54.080Z,101446.79
2018-05-28T05:21:19.877Z,101449.32
2018-05-28T05:23:45.653Z,101443.02
2018-05-28T05:26:11.470Z,101450.44
2018-05-28T05:28:37.252Z,101446.26
2018-05-28T05:31:03.056Z,101444.71
2018-05-28T05:33:28.868Z,101443.41
2018-05-28T05:35:54.640Z,101444.16
2018-05-28T05:38:27.508Z,101447.25
2018-05-28T05:40:53.286Z,101456.75
2018-05-28T05:43:19.273Z,101461.58
2018-05-28T05:45:45.092Z,101466.86
2018-05-28T05:48:10.874Z,101463.34
2018-05-28T05:50:36.665Z,101462.02
2018-05-28T05:53:02.537Z,101472.72
2018-05-28T05:55:28.325Z,101467.91
2018-05-28T05:57:54.121Z,101466.41
2018-05-28T06:00:19.927Z,101467.71
2018-05-28T06:02:45.704Z,101471.26
2018-05-28T06:05:11.486Z,101475.91
2018-05-28T06:07:37.285Z,101475.81
2018-05-28T06:10:03.084Z,101478.27
2018-05-28T06:12:28.866Z,101482.08
2018-05-28T06:14:54.849Z,101483.17
2018-05-28T06:17:20.779Z,101478.65
2018-05-28T06:19:46.563Z,101480.23
2018-05-28T06:22:12.413Z,101476.98
2018-05-28T06:24:38.223Z,101482.72
2018-05-28T06:27:04.021Z,101489.89
2018-05-28T06:29:29.813Z,101481.31
2018-05-28T06:31:55.905Z,101486.13
2018-05-28T06:34:21.796Z,101485.23
2018-05-28T06:36:47.805Z,101490.21
2018-05-28T06:39:13.616Z,101486.27
2018-05-28T06:41:39.489Z,101479.69
2018-05-28T06:44:05.594Z,101480.81
2018-05-28T06:46:31.409Z,101485.55
2018-05-28T06:48:57.225Z,101480.73
2018-05-28T06:51:23.147Z,101481.73
2018-05-28T06:53:48.990Z,101482.17
2018-05-28T06:56:15.322Z,101472.47
2018-05-28T06:58:41.584Z,101464.83
2018-05-28T07:01:07.424Z,101467.14
2018-05-28T07:03:33.225Z,101467.51
2018-05-28T07:05:59.021Z,101468.38
2018-05-28T07:08:24.841Z,101466.41
2018-05-28T07:10:50.638Z,101462.95
2018-05-28T07:13:16.834Z,101461.48
2018-05-28T07:15:42.749Z,101465.22
2018-05-28T07:18:08.712Z,101461.73
2018-05-28T07:20:34.568Z,101461.16
2018-05-28T07:23:00.377Z,101460.09
2018-05-28T07:25:26.182Z,101465.80
2018-05-28T07:27:52.289Z,101459.95
2018-05-28T07:30:18.188Z,101453.03
2018-05-28T07:32:44.172Z,101456.28
2018-05-28T07:35:10.303Z,101447.69
2018-05-28T07:37:36.747Z,101455.57
2018-05-28T07:40:02.658Z,101453.87
2018-05-28T07:42:29.027Z,101455.56
2018-05-28T07:44:55.125Z,101452.77
2018-05-28T07:47:20.853Z,101454.12
2018-05-28T07:49:46.690Z,101452.44
2018-05-28T07:52:12.514Z,101459.29
2018-05-28T07:54:38.318Z,101456.82
2018-05-28T07:57:04.615Z,101452.02
2018-05-28T07:59:30.661Z,101454.41
2018-05-28T08:01:56.496Z,101453.49
2018-05-28T08:04:22.300Z,101447.31
2018-05-28T08:06:48.436Z,101451.72
2018-05-28T08:09:14.193Z,101442.31
2018-05-28T08:11:40.008Z,101444.08
2018-05-28T08:14:05.814Z,101443.03
2018-05-28T08:16:31.700Z,101437.67
2018-05-28T08:18:57.518Z,101441.14
2018-05-28T08:21:23.323Z,101440.27
2018-05-28T08:23:49.139Z,101442.36
2018-05-28T08:26:14.938Z,101444.58
2018-05-28T08:28:40.793Z,101439.77
2018-05-28T08:31:06.663Z,101441.58
2018-05-28T08:33:32.465Z,101438.59
2018-05-28T08:35:58.269Z,101436.66
2018-05-28T08:38:24.098Z,101440.66
2018-05-28T08:40:49.914Z,101440.01
2018-05-28T08:43:15.717Z,101434.86
2018-05-28T08:45:41.612Z,101441.49
2018-05-28T08:48:07.408Z,101440.23
2018-05-28T08:50:33.207Z,101445.83
2018-05-28T08:52:59.028Z,101445.62
2018-05-28T08:55:24.825Z,101442.72
2018-05-28T08:57:50.650Z,101441.13
2018-05-28T09:00:16.469Z,101436.52
2018-05-28T09:02:42.326Z,101440.37
2018-05-28T09:05:08.116Z,101442.35
2018-05-28T09:07:34.190Z,101438.64
2018-05-28T09:09:59.989Z,101439.60
2018-05-28T09:12:25.835Z,101439.95
2018-05-28T09:14:51.633Z,101445.04
2018-05-28T09:17:17.496Z,101441.20
2018-05-28T09:19:43.321Z,101428.19
2018-05-28T09:22:09.490Z,101428.71
2018-05-28T09:24:35.328Z,101429.87
2018-05-28T09:27:01.157Z,101425.92
2018-05-28T09:29:26.977Z,101431.33
2018-05-28T09:31:53.274Z,101429.75
2018-05-28T09:34:19.080Z,101424.97
2018-05-28T09:36:45.635Z,101433.39
2018-05-28T09:39:11.445Z,101430.83
2018-05-28T09:41:37.264Z,101436.05
2018-05-28T09:44:03.097Z,101432.35
2018-05-28T09:46:28.888Z,101430.84
2018-05-28T09:48:54.809Z,101431.83
2018-05-28T09:51:20.782Z,101435.45
2018-05-28T09:53:46.617Z,101440.48
2018-05-28T09:56:13.284Z,101433.51
2018-05-28T09:58:39.482Z,101430.63
2018-05-28T10:01:06.031Z,101436.80
2018-05-28T10:03:32.084Z,101440.91
2018-05-28T10:05:57.937Z,101437.81
2018-05-28T10:08:24.423Z,101437.29
2018-05-28T10:10:50.407Z,101443.37
2018-05-28T10:13:16.461Z,101450.35
2018-05-28T10:15:42.579Z,101447.36
2018-05-28T10:18:08.624Z,101446.30
2018-05-28T10:20:34.656Z,101452.90
2018-05-28T10:23:00.494Z,101449.67
2018-05-28T10:25:26.328Z,101444.80
2018-05-28T10:27:52.374Z,101449.97
2018-05-28T10:30:18.272Z,101451.45
2018-05-28T10:32:45.063Z,101446.55
2018-05-28T10:35:12.097Z,101440.59
2018-05-28T10:37:38.732Z,101443.74
2018-05-28T10:40:05.666Z,101441.89
2018-05-28T10:42:32.492Z,101449.03
2018-05-28T10:44:59.478Z,101447.50
2018-05-28T10:47:27.209Z,101440.13
2018-05-28T10:49:55.505Z,101441.08
2018-05-28T10:52:22.644Z,101438.76
2018-05-28T10:54:50.186Z,101434.61
2018-05-28T10:57:17.179Z,101440.94
2018-05-28T11:12:50.680Z,101426.25
2018-05-28T11:15:17.188Z,101425.78
2018-05-28T11:17:43.059Z,101428.31
2018-05-28T11:20:09.131Z,101426.77
2018-05-28T11:22:34.995Z,101425.20
2018-05-28T11:25:01.030Z,101425.14
2018-05-28T11:27:26.845Z,101418.11
2018-05-28T11:29:52.652Z,101415.38
2018-05-28T11:32:18.484Z,101414.81
2018-05-28T11:34:44.282Z,101417.95
2018-05-28T11:37:10.655Z,101418.67
2018-05-28T11:39:36.426Z,101416.63
2018-05-28T11:42:02.230Z,101414.61
2018-05-28T11:44:28.049Z,101415.70
2018-05-28T11:46:54.802Z,101416.79
2018-05-28T11:51:54.467Z,101415.38
2018-05-28T11:54:20.281Z,101409.86
2018-05-28T11:56:46.075Z,101408.94
2018-05-28T11:59:11.871Z,101406.86
2018-05-28T12:01:37.690Z,101406.64
2018-05-28T12:04:03.482Z,101409.75
2018-05-28T12:06:29.271Z,101407.95
2018-05-28T12:08:55.094Z,101410.96
2018-05-28T12:11:20.888Z,101408.55
2018-05-28T12:13:46.674Z,101408.94
2018-05-28T12:16:12.832Z,101407.47
2018-05-28T12:18:38.623Z,101405.81
2018-05-28T12:21:04.439Z,101403.18
2018-05-28T12:23:30.262Z,101408.44
2018-05-28T12:25:56.053Z,101398.45
2018-05-28T12:28:21.849Z,101398.03
2018-05-28T12:30:47.658Z,101395.89
2018-05-28T12:33:13.452Z,101393.52
2018-05-28T12:35:39.259Z,101387.81
2018-05-28T12:38:05.054Z,101380.45
2018-05-28T12:40:30.835Z,101384.02
2018-05-28T12:42:56.645Z,101379.68
2018-05-28T12:45:22.438Z,101378.38
2018-05-28T12:47:48.238Z,101372.08
2018-05-28T12:50:14.025Z,101376.42
2018-05-28T12:52:39.811Z,101374.34
2018-05-28T12:55:05.640Z,101375.21
2018-05-28T12:57:31.440Z,101365.76
2018-05-28T12:59:57.213Z,101364.41
2018-05-28T13:02:23.022Z,101361.85
2018-05-28T13:04:48.806Z,101356.59
2018-05-28T13:07:14.598Z,101360.23
2018-05-28T13:09:40.562Z,101354.78
2018-05-28T13:12:06.365Z,101356.55
2018-05-28T13:14:32.182Z,101350.64
2018-05-28T13:16:58.071Z,101349.55
2018-05-28T13:19:23.869Z,101348.13
2018-05-28T13:21:49.653Z,101348.36
2018-05-28T13:24:15.447Z,101349.02
2018-05-28T13:26:41.237Z,101347.05
2018-05-28T13:29:07.024Z,101341.30
2018-05-28T13:31:32.815Z,101338.86
2018-05-28T13:33:58.621Z,101338.98
2018-05-28T13:36:24.386Z,101335.09
2018-05-28T13:38:50.181Z,101341.38
2018-05-28T13:41:16.002Z,101335.09
2018-05-28T13:43:41.812Z,101333.78
2018-05-28T13:46:07.605Z,101329.66
2018-05-28T13:48:33.407Z,101333.34
2018-05-28T13:50:59.322Z,101332.00
2018-05-28T13:53:25.089Z,101328.63
2018-05-28T13:55:50.865Z,101328.91
2018-05-28T13:58:16.650Z,101323.04
2018-05-28T14:00:42.435Z,101317.48
2018-05-28T14:03:08.233Z,101316.62
2018-05-28T14:05:34.011Z,101318.82
2018-05-28T14:07:59.805Z,101313.24
2018-05-28T14:10:25.656Z,101316.06
2018-05-28T14:12:51.444Z,101304.36
2018-05-28T14:15:17.249Z,101308.61
2018-05-28T14:17:43.445Z,101304.70
2018-05-28T14:20:09.254Z,101304.86
2018-05-28T14:22:35.080Z,101306.13
2018-05-28T14:25:00.852Z,101307.17
2018-05-28T14:27:26.669Z,101307.22
2018-05-28T14:29:52.466Z,101307.75
2018-05-28T14:32:18.251Z,101298.53
2018-05-28T14:34:44.030Z,101292.54
2018-05-28T14:37:09.825Z,101285.95
2018-05-28T14:39:35.616Z,101289.51
2018-05-28T14:42:01.394Z,101292.34
2018-05-28T14:44:27.209Z,101292.48
2018-05-28T14:46:52.990Z,101291.61
2018-05-28T14:49:18.850Z,101278.10
2018-05-28T14:51:44.652Z,101277.45
2018-05-28T14:54:10.442Z,101280.46
2018-05-28T14:56:36.226Z,101281.19
2018-05-28T14:59:02.042Z,101270.45
2018-05-28T15:01:27.837Z,101273.79
2018-05-28T15:03:53.639Z,101272.30
2018-05-28T15:06:19.410Z,101268.62
2018-05-28T15:08:45.231Z,101271.01
2018-05-28T15:11:11.041Z,101271.06
2018-05-28T15:13:36.817Z,101268.73
2018-05-28T15:16:02.617Z,101265.73
2018-05-28T15:18:28.431Z,101261.78
2018-05-28T15:20:54.221Z,101253.55
2018-05-28T15:23:19.993Z,101249.94
2018-05-28T15:25:46.057Z,101248.31
2018-05-28T15:28:11.854Z,101245.03
2018-05-28T15:30:37.641Z,101242.83
2018-05-28T15:33:03.462Z,101233.77
2018-05-28T15:35:29.249Z,101233.02
2018-05-28T15:37:55.030Z,101231.33
2018-05-28T15:40:20.822Z,101230.13
2018-05-28T15:42:46.610Z,101229.38
2018-05-28T15:45:12.420Z,101233.27
2018-05-28T15:47:38.250Z,101227.63
2018-05-28T15:50:04.047Z,101233.48
2018-05-28T15:52:29.831Z,101232.50
2018-05-28T15:54:55.666Z,101226.13
2018-05-28T15:57:21.425Z,101225.97
2018-05-28T15:59:47.208Z,101225.53
2018-05-28T16:02:13.003Z,101222.64
2018-05-28T16:04:38.804Z,101220.87
2018-05-28T16:07:04.613Z,101228.00
2018-05-28T16:09:30.562Z,101217.98
2018-05-28T16:11:56.468Z,101219.94
2018-05-28T16:14:22.297Z,101219.53
2018-05-28T16:16:48.117Z,101222.35
2018-05-28T16:19:14.108Z,101220.19
2018-05-28T16:21:40.019Z,101214.19
2018-05-28T16:24:05.873Z,101208.06
2018-05-28T16:26:31.843Z,101210.81
2018-05-28T16:28:58.281Z,101208.76
2018-05-28T16:31:24.121Z,101207.95
2018-05-28T16:33:49.949Z,101211.00
2018-05-28T16:36:16.321Z,101214.89
2018-05-28T16:38:42.251Z,101216.63
2018-05-28T16:41:08.062Z,101215.86
2018-05-28T16:43:33.849Z,101220.27
2018-05-28T16:45:59.669Z,101221.08
2018-05-28T16:48:25.465Z,101221.10
2018-05-28T16:50:51.256Z,101225.43
2018-05-28T16:53:17.057Z,101225.84
2018-05-28T16:55:42.841Z,101222.00
2018-05-28T16:58:09.253Z,101217.70
2018-05-28T17:00:35.108Z,101212.56
2018-05-28T17:03:00.861Z,101213.84
2018-05-28T17:05:26.679Z,101212.13
2018-05-28T17:07:52.479Z,101207.83
2018-05-28T17:10:18.273Z,101212.16
2018-05-28T17:12:44.704Z,101213.02
2018-05-28T17:15:10.868Z,101211.28
2018-05-28T17:17:36.729Z,101214.74
2018-05-28T17:20:02.568Z,101214.72
2018-05-28T17:22:28.346Z,101217.75
2018-05-28T17:24:54.147Z,101219.91
2018-05-28T17:27:19.997Z,101223.74
2018-05-28T17:29:45.778Z,101226.73
2018-05-28T17:32:11.618Z,101234.88
2018-05-28T17:34:37.424Z,101228.88
2018-05-28T17:37:03.224Z,101236.59
2018-05-28T17:39:29.050Z,101227.98
2018-05-28T17:41:54.857Z,101237.41
2018-05-28T17:44:20.632Z,101237.73
2018-05-28T17:46:46.723Z,101233.42
2018-05-28T17:49:12.693Z,101240.72
2018-05-28T17:51:38.817Z,101238.15
2018-05-28T17:54:04.650Z,101238.53
2018-05-28T17:56:30.444Z,101241.52
2018-05-28T17:58:56.469Z,101236.38
2018-05-28T18:01:22.308Z,101249.20
2018-05-28T18:03:48.112Z,101246.13
2018-05-28T18:06:13.905Z,101242.26
2018-05-28T18:08:39.699Z,101245.23
2018-05-28T18:11:05.507Z,101242.57
2018-05-28T18:13:31.564Z,101246.41
2018-05-28T18:15:57.767Z,101239.43
2018-05-28T18:18:23.910Z,101240.75
2018-05-28T18:20:49.814Z,101217.08
2018-05-28T18:23:15.593Z,101229.57
2018-05-28T18:25:41.397Z,101222.23
2018-05-28T18:28:07.268Z,101213.20
2018-05-28T18:30:33.058Z,101212.64
2018-05-28T18:32:59.179Z,101210.05
2018-05-28T18:35:25.304Z,101216.02
2018-05-28T18:37:51.089Z,101211.73
2018-05-28T18:40:17.020Z,101219.38
2018-05-28T18:42:42.972Z,101227.90
2018-05-28T18:45:08.761Z,101226.09
2018-05-28T18:47:34.560Z,101226.06
2018-05-28T18:50:00.342Z,101228.17
2018-05-28T18:52:26.133Z,101224.61
2018-05-28T18:54:51.948Z,101229.61
2018-05-28T18:57:17.740Z,101224.82
2018-05-28T18:59:43.521Z,101226.92
2018-05-28T19:02:09.630Z,101229.88
2018-05-28T19:04:35.451Z,101240.47
2018-05-28T19:07:01.243Z,101239.53
2018-05-28T19:09:27.033Z,101234.02
2018-05-28T19:11:53.801Z,101236.97
2018-05-28T19:14:19.601Z,101240.31
2018-05-28T19:16:45.409Z,101241.94
2018-05-28T19:19:11.462Z,101249.20
2018-05-28T19:21:37.258Z,101250.06
2018-05-28T19:24:03.154Z,101255.50
2018-05-28T19:26:28.940Z,101255.03
2018-05-28T19:28:54.732Z,101260.16
2018-05-28T19:31:20.775Z,101268.23
2018-05-28T19:33:47.332Z,101275.08
2018-05-28T19:36:13.128Z,101283.64
2018-05-28T19:38:38.930Z,101283.98
2018-05-28T19:41:04.700Z,101291.09
2018-05-28T19:43:30.474Z,101299.65
2018-05-28T19:45:56.570Z,101294.84
2018-05-28T19:48:22.368Z,101295.18
2018-05-28T19:50:48.145Z,101300.64
2018-05-28T19:53:13.932Z,101295.55
2018-05-28T19:55:39.761Z,101298.51
2018-05-28T19:58:05.570Z,101295.02
2018-05-28T20:00:31.362Z,101295.34
2018-05-28T20:02:57.181Z,101297.05
2018-05-28T20:05:22.964Z,101290.63
2018-05-28T20:07:48.754Z,101297.00
2018-05-28T20:10:14.558Z,101293.99
2018-05-28T20:12:40.349Z,101295.11
2018-05-28T20:15:06.154Z,101287.61
2018-05-28T20:17:31.952Z,101291.52
2018-05-28T20:19:57.765Z,101292.75
2018-05-28T20:22:23.595Z,101290.54
2018-05-28T20:24:49.386Z,101290.91
2018-05-28T20:27:15.169Z,101295.91
2018-05-28T20:29:40.969Z,101294.82
2018-05-28T20:32:06.781Z,101290.67
2018-05-28T20:34:32.590Z,101295.31
2018-05-28T20:36:58.429Z,101287.13
2018-05-28T20:39:24.211Z,101283.59
2018-05-28T20:41:50.022Z,101278.27
2018-05-28T20:44:15.812Z,101278.06
2018-05-28T20:46:41.596Z,101272.99
2018-05-28T20:49:07.414Z,101286.61
2018-05-28T20:51:33.204Z,101285.03
2018-05-28T20:53:59.023Z,101281.03
2018-05-28T20:56:24.818Z,101281.53
2018-05-28T20:58:50.600Z,101278.70
2018-05-28T21:01:16.394Z,101283.80
2018-05-28T21:03:42.181Z,101281.02
2018-05-28T21:06:07.987Z,101281.41
2018-05-28T21:08:34.113Z,101288.88
2018-05-28T21:10:59.900Z,101290.66
2018-05-28T21:13:25.670Z,101289.30
2018-05-28T21:15:51.492Z,101283.38
2018-05-28T21:18:17.292Z,101282.52
2018-05-28T21:20:43.076Z,101285.39
2018-05-28T21:23:08.894Z,101289.16
2018-05-28T21:25:34.693Z,101279.16
2018-05-28T21:28:00.476Z,101283.80
2018-05-28T21:30:26.290Z,101278.21
2018-05-28T21:32:52.081Z,101284.20
2018-05-28T21:35:17.901Z,101288.31
2018-05-28T21:37:43.664Z,101282.28
2018-05-28T21:40:09.437Z,101278.87
2018-05-28T21:42:35.480Z,101281.48
2018-05-28T21:45:01.282Z,101285.67
2018-05-28T21:47:27.085Z,101289.30
2018-05-28T21:49:52.924Z,101282.11
2018-05-28T21:52:18.738Z,101281.95
2018-05-28T21:54:44.532Z,101290.42
2018-05-28T21:57:10.358Z,101283.94
2018-05-28T21:59:36.150Z,101283.36
2018-05-28T22:02:01.946Z,101276.11
2018-05-28T22:04:27.754Z,101277.12
2018-05-28T22:06:53.541Z,101276.75
2018-05-28T22:09:19.312Z,101273.69
2018-05-28T22:11:45.138Z,101273.63
2018-05-28T22:14:10.939Z,101270.99
2018-05-28T22:16:36.743Z,101271.85
2018-05-28T22:19:02.565Z,101271.83
2018-05-28T22:21:28.370Z,101263.57
2018-05-28T22:23:54.197Z,101255.83
2018-05-28T22:26:20.001Z,101252.94
2018-05-28T22:28:45.828Z,101254.06
2018-05-28T22:31:11.610Z,101253.17
2018-05-28T22:33:37.464Z,101259.48
2018-05-28T22:36:03.265Z,101254.33
2018-05-28T22:38:29.059Z,101247.98
2018-05-28T22:40:54.917Z,101241.89
2018-05-28T22:43:20.705Z,101245.34
2018-05-28T22:45:46.494Z,101240.66
2018-05-28T22:48:12.294Z,101238.90
2018-05-28T22:50:38.089Z,101228.80
2018-05-28T22:53:03.895Z,101227.53
2018-05-28T22:55:29.686Z,101227.36
2018-05-28T22:57:55.528Z,101223.81
2018-05-28T23:00:33.207Z,101226.78
2018-05-28T23:02:59.043Z,101221.22
2018-05-28T23:05:24.826Z,101219.95
2018-05-28T23:07:50.615Z,101216.55
2018-05-28T23:10:16.449Z,101217.77
2018-05-28T23:12:42.249Z,101212.64
2018-05-28T23:15:08.038Z,101212.47
2018-05-28T23:17:33.929Z,101216.70
2018-05-28T23:19:59.716Z,101210.67
2018-05-28T23:22:25.540Z,101207.16
2018-05-28T23:24:51.372Z,101208.08
2018-05-28T23:27:17.153Z,101207.94
2018-05-28T23:29:42.945Z,101206.09
2018-05-28T23:32:08.758Z,101200.59
2018-05-28T23:34:34.648Z,101194.70
2018-05-28T23:37:00.594Z,101194.08
2018-05-28T23:39:26.396Z,101191.77
2018-05-28T23:41:52.181Z,101186.23
2018-05-28T23:44:17.976Z,101188.80
2018-05-28T23:46:44.007Z,101187.02
2018-05-28T23:49:09.801Z,101189.98
2018-05-28T23:51:35.593Z,101185.63
2018-05-28T23:54:01.477Z,101193.27
2018-05-28T23:56:27.268Z,101194.48
2018-05-28T23:58:53.057Z,101187.66
